Time;durP1;ratioP1;P1;durP2;ratioP2;P2;SDS_P1;SDS_P2;PMS_P1;PMS_P2;Temp;Humidity;BMP_temperature;BMP_pressure;BME280_temperature;BME280_humidity;BME280_pressure;Samples;Min_cycle;Max_cycle;Signal;HPM_P1;HPM_P2
2021/12/20 00:02:24;;;;;;;24.50;8.88;;;;;;;;;;4984747;28;20066;-88
2021/12/20 00:04:54;;;;;;;18.77;7.03;;;;;;;;;;4990197;28;20474;-88
2021/12/20 00:07:25;;;;;;;19.52;6.95;;;;;;;;;;4993968;28;20563;-88
2021/12/20 00:09:58;;;;;;;19.67;6.93;;;;;;;;;;4993934;28;20054;-90
2021/12/20 00:12:27;;;;;;;16.35;6.82;;;;;;;;;;4993053;28;20046;-89
2021/12/20 00:14:58;;;;;;;19.08;6.93;;;;;;;;;;4997414;28;20132;-90
2021/12/20 00:17:27;;;;;;;16.33;6.05;;;;;;;;;;4995803;28;20095;-89
2021/12/20 00:19:56;;;;;;;17.98;6.65;;;;;;;;;;4994908;28;20137;-88
2021/12/20 00:22:26;;;;;;;15.55;6.57;;;;;;;;;;5001908;28;20073;-88
2021/12/20 00:24:55;;;;;;;17.42;6.15;;;;;;;;;;5000039;28;20351;-88
2021/12/20 00:27:24;;;;;;;21.58;6.95;;;;;;;;;;4993578;28;20070;-89
2021/12/20 00:29:52;;;;;;;17.80;5.90;;;;;;;;;;4992192;28;20446;-89
2021/12/20 00:32:21;;;;;;;18.15;6.43;;;;;;;;;;4995033;28;20102;-88
2021/12/20 00:34:49;;;;;;;17.25;7.03;;;;;;;;;;4995433;28;20046;-89
2021/12/20 00:40:21;;;;;;;18.13;6.85;;;;;;;;;;4993366;28;20115;-88
2021/12/20 00:42:52;;;;;;;17.50;6.53;;;;;;;;;;4976948;28;20057;-88
2021/12/20 00:45:21;;;;;;;15.60;6.07;;;;;;;;;;4994518;28;20081;-89
2021/12/20 00:47:50;;;;;;;20.25;6.70;;;;;;;;;;4997819;28;20065;-88
2021/12/20 00:50:21;;;;;;;15.85;6.50;;;;;;;;;;4998392;28;20049;-90
2021/12/20 00:52:51;;;;;;;17.83;6.07;;;;;;;;;;4992934;28;20043;-90
2021/12/20 00:58:07;;;;;;;18.48;6.93;;;;;;;;;;4997702;28;20565;-89
2021/12/20 01:00:41;;;;;;;19.70;7.20;;;;;;;;;;4994582;28;20175;-89
2021/12/20 01:03:10;;;;;;;19.38;6.90;;;;;;;;;;4994981;28;20134;-89
2021/12/20 01:05:39;;;;;;;18.40;7.25;;;;;;;;;;5005247;28;20073;-89
2021/12/20 01:08:09;;;;;;;15.68;6.57;;;;;;;;;;4996890;28;20058;-88
2021/12/20 01:10:43;;;;;;;14.13;6.10;;;;;;;;;;5011897;28;20398;-89
2021/12/20 01:13:13;;;;;;;19.08;7.65;;;;;;;;;;4996492;28;20145;-88
2021/12/20 01:15:47;;;;;;;19.88;6.32;;;;;;;;;;4996180;28;20486;-88
2021/12/20 01:18:16;;;;;;;22.25;7.00;;;;;;;;;;4995085;28;20124;-88
2021/12/20 01:20:45;;;;;;;16.65;7.10;;;;;;;;;;4990629;28;20339;-88
2021/12/20 01:23:15;;;;;;;13.60;6.05;;;;;;;;;;4991389;28;20046;-89
2021/12/20 01:25:48;;;;;;;18.60;6.43;;;;;;;;;;4992657;28;20188;-88
2021/12/20 01:28:23;;;;;;;17.67;7.15;;;;;;;;;;4979926;28;20449;-87
2021/12/20 01:30:53;;;;;;;17.90;6.97;;;;;;;;;;4993799;28;20109;-88
2021/12/20 01:33:22;;;;;;;15.68;6.07;;;;;;;;;;5009807;28;20096;-90
2021/12/20 01:35:56;;;;;;;16.75;6.55;;;;;;;;;;4994201;28;20125;-87
2021/12/20 01:38:25;;;;;;;18.13;7.40;;;;;;;;;;5002706;28;20065;-88
2021/12/20 01:40:56;;;;;;;15.55;6.70;;;;;;;;;;4992101;28;20070;-88
2021/12/20 01:43:24;;;;;;;17.08;6.45;;;;;;;;;;4991434;28;20050;-88
2021/12/20 01:45:53;;;;;;;14.82;5.93;;;;;;;;;;4992549;28;20081;-87
2021/12/20 01:48:22;;;;;;;16.73;6.10;;;;;;;;;;4993796;28;20126;-88
2021/12/20 01:51:17;;;;;;;16.67;6.88;;;;;;;;;;4993349;28;20066;-88
2021/12/20 01:53:45;;;;;;;20.13;7.28;;;;;;;;;;5001131;28;20494;-87
2021/12/20 01:56:16;;;;;;;20.38;7.28;;;;;;;;;;4986958;28;20169;-88
2021/12/20 01:58:44;;;;;;;22.45;6.82;;;;;;;;;;4974274;28;20050;-88
2021/12/20 02:01:24;;;;;;;18.20;7.22;;;;;;;;;;4974095;28;20077;-87
2021/12/20 02:03:59;;;;;;;15.60;5.88;;;;;;;;;;4980018;28;20042;-88
2021/12/20 02:06:34;;;;;;;17.13;7.00;;;;;;;;;;4991313;28;20145;-88
2021/12/20 02:09:04;;;;;;;;;;;;;;;;;;4972437;28;20122;-88
2021/12/20 02:11:34;;;;;;;16.90;6.03;;;;;;;;;;4972673;28;20393;-88
2021/12/20 02:14:04;;;;;;;19.50;6.63;;;;;;;;;;4973984;28;20398;-87
2021/12/20 02:16:33;;;;;;;19.30;6.68;;;;;;;;;;4975194;28;20046;-88
2021/12/20 02:19:02;;;;;;;18.67;6.40;;;;;;;;;;4970960;28;20388;-88
2021/12/20 02:21:34;;;;;;;17.58;6.25;;;;;;;;;;4970337;28;20092;-88
2021/12/20 02:24:03;;;;;;;13.57;6.13;;;;;;;;;;4975851;28;20046;-88
2021/12/20 02:26:35;;;;;;;19.95;6.50;;;;;;;;;;4969573;28;20050;-87
2021/12/20 02:29:07;;;;;;;19.20;6.38;;;;;;;;;;4976084;28;20486;-88
2021/12/20 02:37:20;;;;;;;17.30;6.72;;;;;;;;;;4974635;28;20161;-88
2021/12/20 02:39:49;;;;;;;18.70;6.57;;;;;;;;;;4977444;28;20169;-88
2021/12/20 02:42:22;;;;;;;22.30;7.75;;;;;;;;;;4975322;28;20537;-88
2021/12/20 02:45:03;;;;;;;17.90;6.72;;;;;;;;;;4979332;28;20051;-88
2021/12/20 02:47:32;;;;;;;17.88;7.13;;;;;;;;;;4973110;28;20109;-88
2021/12/20 02:50:01;;;;;;;20.77;7.43;;;;;;;;;;4968446;28;20346;-88
2021/12/20 02:52:31;;;;;;;17.23;7.18;;;;;;;;;;4976519;28;20403;-87
2021/12/20 02:54:59;;;;;;;25.48;7.32;;;;;;;;;;4976032;28;20086;-88
2021/12/20 02:57:30;;;;;;;21.65;7.75;;;;;;;;;;4976109;28;20055;-87
2021/12/20 03:00:10;;;;;;;19.10;7.20;;;;;;;;;;4972761;28;20062;-87
2021/12/20 03:02:39;;;;;;;21.38;7.63;;;;;;;;;;4977698;28;20046;-87
2021/12/20 03:05:08;;;;;;;20.98;7.13;;;;;;;;;;4979512;28;20065;-88
2021/12/20 03:07:46;;;;;;;19.77;6.85;;;;;;;;;;4979816;28;20561;-88
2021/12/20 03:10:15;;;;;;;21.13;7.45;;;;;;;;;;4977365;28;20051;-87
2021/12/20 03:12:45;;;;;;;21.65;7.68;;;;;;;;;;4982201;28;20549;-88
2021/12/20 03:15:19;;;;;;;18.42;7.65;;;;;;;;;;4991211;28;20047;-88
2021/12/20 03:17:47;;;;;;;19.15;6.72;;;;;;;;;;4979424;28;20050;-88
2021/12/20 03:20:18;;;;;;;18.77;7.10;;;;;;;;;;4977827;28;20055;-87
2021/12/20 03:22:48;;;;;;;21.50;7.15;;;;;;;;;;4971534;28;20561;-88
2021/12/20 03:25:17;;;;;;;19.65;6.63;;;;;;;;;;4984788;28;20053;-88
2021/12/20 03:27:46;;;;;;;18.58;7.43;;;;;;;;;;4961737;28;20047;-88
2021/12/20 03:30:17;;;;;;;21.05;7.72;;;;;;;;;;4978321;28;20148;-87
2021/12/20 03:32:47;;;;;;;13.10;5.45;;;;;;;;;;4977088;28;20098;-88
2021/12/20 03:35:43;;;;;;;20.30;7.45;;;;;;;;;;4979892;28;20137;-87
2021/12/20 03:38:14;;;;;;;20.88;7.00;;;;;;;;;;4985272;28;20137;-88
2021/12/20 03:40:43;;;;;;;18.15;6.60;;;;;;;;;;5001595;28;20078;-88
2021/12/20 03:43:13;;;;;;;18.30;6.90;;;;;;;;;;4991315;28;20324;-88
2021/12/20 03:45:44;;;;;;;20.45;6.57;;;;;;;;;;4983650;28;20058;-88
2021/12/20 03:48:12;;;;;;;19.63;6.60;;;;;;;;;;4980615;28;20115;-87
2021/12/20 03:50:41;;;;;;;16.20;6.05;;;;;;;;;;4976261;28;20101;-87
2021/12/20 03:53:10;;;;;;;16.60;5.90;;;;;;;;;;4987279;28;20085;-87
2021/12/20 03:55:40;;;;;;;17.20;6.57;;;;;;;;;;4975424;28;20047;-88
2021/12/20 03:58:09;;;;;;;23.13;7.57;;;;;;;;;;4977372;28;20149;-88
2021/12/20 04:00:37;;;;;;;23.40;7.22;;;;;;;;;;4974655;28;20058;-88
2021/12/20 04:03:10;;;;;;;17.05;6.97;;;;;;;;;;4959834;28;20058;-88
2021/12/20 04:05:40;;;;;;;20.67;7.93;;;;;;;;;;4974008;28;20047;-88
2021/12/20 04:08:08;;;;;;;15.90;7.03;;;;;;;;;;4979821;28;20054;-88
2021/12/20 04:10:37;;;;;;;18.77;7.30;;;;;;;;;;4995763;28;20513;-88
2021/12/20 04:13:09;;;;;;;19.95;7.03;;;;;;;;;;4998625;28;20082;-87
2021/12/20 04:15:40;;;;;;;13.80;5.95;;;;;;;;;;4999361;28;20050;-87
2021/12/20 04:18:09;;;;;;;19.75;6.82;;;;;;;;;;4979932;28;20073;-87
2021/12/20 04:20:37;;;;;;;24.83;7.45;;;;;;;;;;4994341;28;20042;-88
2021/12/20 04:23:06;;;;;;;18.38;6.72;;;;;;;;;;5010636;28;20458;-87
2021/12/20 04:25:34;;;;;;;18.67;6.57;;;;;;;;;;5003310;28;20041;-88
2021/12/20 04:28:03;;;;;;;21.42;7.38;;;;;;;;;;4981997;28;20100;-88
2021/12/20 04:30:34;;;;;;;18.33;6.30;;;;;;;;;;4987317;28;20053;-87
2021/12/20 04:33:04;;;;;;;20.13;6.65;;;;;;;;;;5007756;28;20133;-87
2021/12/20 04:35:33;;;;;;;18.48;6.43;;;;;;;;;;4990125;28;20073;-87
2021/12/20 04:38:03;;;;;;;20.70;6.32;;;;;;;;;;4997256;28;20482;-88
2021/12/20 04:40:32;;;;;;;16.02;7.13;;;;;;;;;;4991138;28;20084;-88
2021/12/20 04:43:01;;;;;;;21.00;6.32;;;;;;;;;;4977776;28;20050;-88
2021/12/20 04:45:30;;;;;;;21.05;6.63;;;;;;;;;;4996722;28;20077;-88
2021/12/20 04:48:00;;;;;;;18.73;6.35;;;;;;;;;;5014303;28;20452;-87
2021/12/20 04:50:31;;;;;;;19.33;6.10;;;;;;;;;;4998936;28;20041;-88
2021/12/20 04:52:59;;;;;;;17.45;6.63;;;;;;;;;;4991699;28;20137;-88
2021/12/20 04:55:29;;;;;;;14.05;6.15;;;;;;;;;;4997695;28;20524;-88
2021/12/20 04:57:58;;;;;;;20.77;6.82;;;;;;;;;;5003159;28;20081;-88
2021/12/20 05:00:28;;;;;;;18.92;6.50;;;;;;;;;;4993538;28;20538;-88
2021/12/20 05:02:57;;;;;;;17.35;6.25;;;;;;;;;;4994730;28;20149;-89
2021/12/20 05:05:32;;;;;;;19.60;7.13;;;;;;;;;;4962088;28;20727;-88
2021/12/20 05:08:01;;;;;;;15.88;5.97;;;;;;;;;;4993681;28;20084;-88
2021/12/20 05:10:31;;;;;;;16.90;6.90;;;;;;;;;;5000757;28;20409;-88
2021/12/20 05:13:05;;;;;;;21.13;7.13;;;;;;;;;;5014608;28;20081;-88
2021/12/20 05:15:38;;;;;;;20.52;6.85;;;;;;;;;;4995960;28;20133;-88
2021/12/20 05:18:08;;;;;;;17.85;5.75;;;;;;;;;;4999458;28;20108;-88
2021/12/20 05:20:38;;;;;;;23.10;7.25;;;;;;;;;;5006615;28;20069;-88
2021/12/20 05:23:07;;;;;;;20.58;6.47;;;;;;;;;;5009279;28;20077;-88
2021/12/20 05:25:39;;;;;;;19.83;7.18;;;;;;;;;;5005531;28;20057;-88
2021/12/20 05:28:09;;;;;;;15.82;6.70;;;;;;;;;;5001091;28;20046;-88
2021/12/20 05:30:40;;;;;;;22.98;7.15;;;;;;;;;;4983796;28;20582;-88
2021/12/20 05:33:08;;;;;;;16.77;7.47;;;;;;;;;;5000614;28;20157;-88
2021/12/20 05:35:40;;;;;;;17.95;6.78;;;;;;;;;;4995084;28;20455;-88
2021/12/20 05:38:11;;;;;;;17.40;6.60;;;;;;;;;;4996423;28;20453;-88
2021/12/20 05:40:40;;;;;;;14.63;6.07;;;;;;;;;;4996940;28;20050;-89
2021/12/20 05:43:09;;;;;;;15.93;6.35;;;;;;;;;;4999084;28;20100;-88
2021/12/20 05:45:38;;;;;;;20.63;6.63;;;;;;;;;;4997493;28;20630;-89
2021/12/20 05:48:06;;;;;;;21.30;7.10;;;;;;;;;;4997590;28;20078;-88
2021/12/20 05:50:36;;;;;;;17.52;6.03;;;;;;;;;;4989381;28;20058;-89
2021/12/20 05:53:06;;;;;;;21.63;7.40;;;;;;;;;;4991050;28;20495;-88
2021/12/20 05:55:35;;;;;;;14.55;6.22;;;;;;;;;;4997684;28;20043;-88
2021/12/20 05:58:04;;;;;;;16.38;5.25;;;;;;;;;;4989322;28;20057;-88
2021/12/20 06:00:33;;;;;;;18.35;6.25;;;;;;;;;;4992338;28;20113;-89
2021/12/20 06:03:02;;;;;;;22.92;6.60;;;;;;;;;;4996068;28;20054;-89
2021/12/20 06:05:32;;;;;;;14.40;5.45;;;;;;;;;;4982436;28;20516;-88
2021/12/20 06:08:06;;;;;;;19.48;7.03;;;;;;;;;;4997132;28;20477;-89
2021/12/20 06:10:37;;;;;;;16.48;6.38;;;;;;;;;;5000177;28;20482;-89
2021/12/20 06:13:06;;;;;;;16.52;6.55;;;;;;;;;;4997334;28;20478;-89
2021/12/20 06:15:35;;;;;;;18.50;6.97;;;;;;;;;;4997432;28;20129;-89
2021/12/20 06:18:04;;;;;;;20.08;6.40;;;;;;;;;;4996158;28;20548;-89
2021/12/20 06:20:33;;;;;;;17.45;6.93;;;;;;;;;;5005041;28;20105;-89
2021/12/20 06:23:02;;;;;;;19.05;6.90;;;;;;;;;;5001771;28;20064;-88
2021/12/20 06:25:34;;;;;;;17.42;6.20;;;;;;;;;;4997855;28;20409;-89
2021/12/20 06:28:21;;;;;;;17.63;6.63;;;;;;;;;;4955913;28;20525;-88
2021/12/20 06:30:50;;;;;;;19.00;7.20;;;;;;;;;;4976031;28;20042;-89
2021/12/20 06:33:20;;;;;;;15.30;5.60;;;;;;;;;;4994301;28;20105;-88
2021/12/20 06:35:49;;;;;;;23.38;7.80;;;;;;;;;;4993066;28;20061;-89
2021/12/20 06:38:20;;;;;;;18.08;7.13;;;;;;;;;;5005761;28;20046;-89
2021/12/20 06:40:49;;;;;;;19.05;6.78;;;;;;;;;;5006544;28;20070;-90
2021/12/20 06:43:20;;;;;;;23.90;7.43;;;;;;;;;;4997747;28;20038;-88
2021/12/20 06:45:50;;;;;;;17.90;6.50;;;;;;;;;;4996043;28;20137;-89
2021/12/20 06:48:28;;;;;;;20.67;7.20;;;;;;;;;;4997397;28;20097;-89
2021/12/20 06:50:58;;;;;;;19.33;7.28;;;;;;;;;;4994250;28;20050;-89
2021/12/20 06:53:27;;;;;;;21.92;8.00;;;;;;;;;;5000760;28;20100;-88
2021/12/20 06:55:56;;;;;;;20.13;7.25;;;;;;;;;;4993506;28;20050;-89
2021/12/20 06:58:27;;;;;;;16.23;6.30;;;;;;;;;;4989518;28;20149;-89
2021/12/20 07:00:56;;;;;;;16.95;6.05;;;;;;;;;;4990196;28;20054;-88
2021/12/20 07:03:24;;;;;;;20.67;7.18;;;;;;;;;;4986346;28;20038;-89
2021/12/20 07:05:53;;;;;;;17.33;7.03;;;;;;;;;;4992308;28;20407;-89
2021/12/20 07:08:22;;;;;;;19.05;6.75;;;;;;;;;;4989299;28;20054;-88
2021/12/20 07:10:51;;;;;;;22.52;6.88;;;;;;;;;;4986353;28;21131;-89
2021/12/20 07:13:21;;;;;;;17.33;7.07;;;;;;;;;;4973749;28;20439;-89
2021/12/20 07:15:52;;;;;;;23.52;7.45;;;;;;;;;;4994598;28;20474;-90
2021/12/20 07:18:20;;;;;;;16.52;7.25;;;;;;;;;;4975102;28;20527;-89
2021/12/20 07:20:49;;;;;;;18.77;7.20;;;;;;;;;;4972227;28;20465;-90
2021/12/20 07:23:28;;;;;;;20.90;6.88;;;;;;;;;;4979513;28;21154;-89
2021/12/20 07:25:57;;;;;;;24.45;8.20;;;;;;;;;;4996602;28;20476;-88
2021/12/20 07:28:26;;;;;;;22.17;6.95;;;;;;;;;;4995720;28;20050;-88
2021/12/20 07:30:57;;;;;;;23.65;6.95;;;;;;;;;;4996727;28;20061;-89
2021/12/20 07:33:26;;;;;;;21.50;7.78;;;;;;;;;;4987063;28;20398;-88
2021/12/20 07:35:54;;;;;;;24.73;8.45;;;;;;;;;;4991202;28;20050;-89
2021/12/20 07:38:23;;;;;;;23.63;8.05;;;;;;;;;;4975058;28;20378;-88
2021/12/20 07:40:54;;;;;;;18.83;7.43;;;;;;;;;;4997068;28;20078;-90
2021/12/20 07:43:23;;;;;;;23.08;8.30;;;;;;;;;;4990501;28;20050;-88
2021/12/20 07:45:52;;;;;;;20.40;7.75;;;;;;;;;;4998014;28;20104;-87
2021/12/20 07:48:25;;;;;;;24.83;8.55;;;;;;;;;;4999577;28;20047;-89
2021/12/20 07:50:57;;;;;;;24.77;7.30;;;;;;;;;;5007614;28;20078;-89
2021/12/20 07:53:26;;;;;;;18.50;6.90;;;;;;;;;;4976578;28;20046;-89
2021/12/20 07:55:55;;;;;;;22.98;7.10;;;;;;;;;;4994238;28;20465;-88
2021/12/20 07:58:25;;;;;;;31.55;9.00;;;;;;;;;;4973270;28;20062;-89
2021/12/20 08:00:55;;;;;;;21.73;7.90;;;;;;;;;;4987156;28;20069;-89
2021/12/20 08:03:29;;;;;;;22.77;8.77;;;;;;;;;;4986597;28;20068;-89
2021/12/20 08:08:44;;;;;;;20.05;7.97;;;;;;;;;;4989761;28;20062;-89
2021/12/20 08:11:13;;;;;;;20.52;7.18;;;;;;;;;;4988684;28;20046;-89
2021/12/20 08:13:45;;;;;;;19.92;8.27;;;;;;;;;;4990758;28;20061;-89
2021/12/20 08:16:24;;;;;;;23.67;7.90;;;;;;;;;;4965819;28;20259;-89
2021/12/20 08:18:57;;;;;;;20.10;6.65;;;;;;;;;;4977348;28;20068;-89
2021/12/20 08:21:26;;;;;;;20.95;7.90;;;;;;;;;;4994410;28;20057;-90
2021/12/20 08:23:55;;;;;;;22.02;7.47;;;;;;;;;;4994220;28;20136;-90
2021/12/20 08:26:27;;;;;;;25.27;7.57;;;;;;;;;;4994560;28;20069;-90
2021/12/20 08:28:58;;;;;;;22.17;7.25;;;;;;;;;;4995135;28;20405;-89
2021/12/20 08:31:27;;;;;;;24.33;7.93;;;;;;;;;;4988995;28;20065;-89
2021/12/20 08:34:05;;;;;;;22.98;8.07;;;;;;;;;;4992884;28;20050;-89
2021/12/20 08:36:34;;;;;;;24.65;8.65;;;;;;;;;;5005825;28;20054;-89
2021/12/20 08:42:49;;;;;;;27.35;8.35;;;;;;;;;;5010950;28;20085;-89
2021/12/20 08:45:20;;;;;;;22.60;8.30;;;;;;;;;;4992892;28;20068;-90
2021/12/20 08:47:51;;;;;;;20.65;7.43;;;;;;;;;;4990967;28;20050;-91
2021/12/20 08:50:23;;;;;;;22.83;7.75;;;;;;;;;;4986341;28;20076;-90
2021/12/20 08:52:52;;;;;;;24.15;8.70;;;;;;;;;;4993645;28;20064;-90
2021/12/20 08:55:21;;;;;;;21.65;8.63;;;;;;;;;;4991425;28;20083;-90
2021/12/20 08:57:51;;;;;;;22.35;7.97;;;;;;;;;;4975646;28;20054;-89
2021/12/20 09:00:21;;;;;;;26.58;6.80;;;;;;;;;;4989836;28;20090;-90
2021/12/20 09:02:50;;;;;;;29.10;8.90;;;;;;;;;;4987462;28;20053;-91
2021/12/20 09:05:20;;;;;;;21.25;7.15;;;;;;;;;;4984734;28;20121;-90
2021/12/20 09:07:50;;;;;;;20.42;7.57;;;;;;;;;;4987374;28;20054;-89
2021/12/20 09:10:20;;;;;;;26.88;8.23;;;;;;;;;;4987693;28;20553;-89
2021/12/20 09:12:48;;;;;;;24.67;8.80;;;;;;;;;;4990951;28;20339;-89
2021/12/20 09:15:18;;;;;;;26.35;8.07;;;;;;;;;;4990949;28;20050;-89
2021/12/20 09:17:48;;;;;;;28.20;9.40;;;;;;;;;;4991654;28;20053;-90
2021/12/20 09:20:19;;;;;;;23.92;8.30;;;;;;;;;;4981959;28;20054;-89
2021/12/20 09:22:52;;;;;;;23.73;8.38;;;;;;;;;;4988202;28;20133;-90
2021/12/20 09:25:22;;;;;;;27.98;8.65;;;;;;;;;;4985617;28;20053;-91
2021/12/20 09:27:51;;;;;;;24.92;7.80;;;;;;;;;;4973434;28;20042;-90
2021/12/20 09:30:21;;;;;;;20.08;7.13;;;;;;;;;;4987936;28;20108;-90
2021/12/20 09:32:50;;;;;;;27.45;8.07;;;;;;;;;;4981627;28;20652;-91
2021/12/20 09:35:22;;;;;;;25.13;8.23;;;;;;;;;;4975131;28;20378;-90
2021/12/20 09:37:52;;;;;;;25.77;8.38;;;;;;;;;;4981029;28;20475;-89
2021/12/20 09:40:32;;;;;;;20.05;7.68;;;;;;;;;;4985641;28;20054;-90
2021/12/20 09:43:02;;;;;;;25.10;8.57;;;;;;;;;;4989562;28;20486;-90
2021/12/20 09:45:32;;;;;;;21.23;7.80;;;;;;;;;;4984229;28;20064;-90
2021/12/20 09:48:02;;;;;;;21.85;7.50;;;;;;;;;;4986511;28;20054;-90
2021/12/20 09:50:32;;;;;;;21.98;8.25;;;;;;;;;;4989953;28;20057;-89
2021/12/20 09:53:07;;;;;;;24.75;8.10;;;;;;;;;;4989180;28;20050;-89
2021/12/20 09:55:36;;;;;;;24.58;7.95;;;;;;;;;;4988108;28;20059;-90
2021/12/20 09:58:08;;;;;;;23.58;8.60;;;;;;;;;;4988301;28;20104;-89
2021/12/20 10:00:37;;;;;;;23.75;8.68;;;;;;;;;;4989312;28;20070;-89
2021/12/20 10:03:06;;;;;;;21.95;7.88;;;;;;;;;;4991372;28;20057;-90
2021/12/20 10:05:35;;;;;;;24.88;8.70;;;;;;;;;;4988011;28;20109;-89
2021/12/20 10:08:13;;;;;;;23.15;8.63;;;;;;;;;;4982033;28;20073;-90
2021/12/20 10:10:44;;;;;;;22.65;8.52;;;;;;;;;;4982929;28;20049;-90
2021/12/20 10:13:23;;;;;;;20.95;7.43;;;;;;;;;;4988453;28;20442;-90
2021/12/20 10:15:53;;;;;;;25.67;8.48;;;;;;;;;;4987344;28;20061;-90
2021/12/20 10:18:22;;;;;;;25.88;9.50;;;;;;;;;;4990055;28;20050;-90
2021/12/20 10:20:52;;;;;;;21.00;7.47;;;;;;;;;;4990789;28;20072;-90
2021/12/20 10:23:23;;;;;;;19.38;8.07;;;;;;;;;;4972720;28;20081;-90
2021/12/20 10:25:54;;;;;;;23.95;9.10;;;;;;;;;;4978849;28;20046;-89
2021/12/20 10:28:39;;;;;;;22.70;6.85;;;;;;;;;;4989491;28;20133;-89
2021/12/20 10:31:12;;;;;;;21.63;7.07;;;;;;;;;;4991049;28;20057;-90
2021/12/20 10:33:41;;;;;;;22.80;8.60;;;;;;;;;;4989923;28;20120;-89
2021/12/20 10:36:13;;;;;;;20.73;7.53;;;;;;;;;;4992555;28;20453;-89
2021/12/20 10:38:43;;;;;;;18.23;7.95;;;;;;;;;;4993202;28;20443;-89
2021/12/20 10:41:14;;;;;;;23.50;8.15;;;;;;;;;;4994379;28;20057;-88
2021/12/20 10:43:49;;;;;;;22.40;6.80;;;;;;;;;;5003461;28;20054;-89
2021/12/20 10:46:26;;;;;;;13.52;6.18;;;;;;;;;;5011662;28;20069;-89
2021/12/20 10:49:00;;;;;;;24.92;8.48;;;;;;;;;;4972152;28;20059;-89
2021/12/20 10:51:30;;;;;;;19.25;7.88;;;;;;;;;;4988519;28;20105;-86
2021/12/20 10:54:02;;;;;;;32.42;8.93;;;;;;;;;;4985960;28;20430;-86
2021/12/20 10:56:33;;;;;;;24.08;8.50;;;;;;;;;;4987956;28;20082;-86
2021/12/20 10:59:03;;;;;;;26.10;8.45;;;;;;;;;;4986721;28;20393;-86
2021/12/20 11:04:39;;;;;;;20.63;7.43;;;;;;;;;;4902923;29;22746;-87
2021/12/20 11:10:05;;;;;;;22.52;7.35;;;;;;;;;;4918760;28;20082;-86
2021/12/20 11:12:34;;;;;;;22.00;6.70;;;;;;;;;;4969918;28;20063;-86
2021/12/20 11:15:07;;;;;;;21.60;8.18;;;;;;;;;;4970968;28;20109;-86
2021/12/20 11:17:36;;;;;;;23.75;7.78;;;;;;;;;;4970646;28;20055;-86
2021/12/20 11:20:05;;;;;;;20.80;6.38;;;;;;;;;;4984072;28;20057;-87
2021/12/20 11:22:34;;;;;;;21.23;7.55;;;;;;;;;;4976223;28;20051;-87
2021/12/20 11:25:05;;;;;;;15.88;6.07;;;;;;;;;;4973678;28;20043;-89
2021/12/20 11:27:34;;;;;;;16.73;6.53;;;;;;;;;;4975755;28;20129;-89
2021/12/20 11:30:07;;;;;;;19.25;6.47;;;;;;;;;;4975902;28;20086;-89
2021/12/20 11:32:36;;;;;;;22.25;6.88;;;;;;;;;;4956498;28;20491;-89
2021/12/20 11:35:06;;;;;;;19.42;6.68;;;;;;;;;;4974492;28;20046;-88
2021/12/20 11:37:35;;;;;;;16.95;6.90;;;;;;;;;;4980915;28;20061;-89
2021/12/20 11:40:07;;;;;;;20.88;7.65;;;;;;;;;;4977242;28;20050;-89
2021/12/20 11:42:36;;;;;;;25.40;7.65;;;;;;;;;;4977252;28;20137;-89
2021/12/20 11:45:06;;;;;;;21.73;7.75;;;;;;;;;;4981263;28;20378;-89
2021/12/20 11:47:37;;;;;;;19.08;5.75;;;;;;;;;;4975532;28;20080;-89
2021/12/20 11:50:07;;;;;;;14.93;5.80;;;;;;;;;;4975256;28;20452;-89
2021/12/20 11:52:36;;;;;;;23.52;7.20;;;;;;;;;;4976932;28;20131;-89
2021/12/20 11:55:17;;;;;;;18.70;6.30;;;;;;;;;;4974855;28;20051;-89
2021/12/20 11:57:46;;;;;;;23.80;7.28;;;;;;;;;;4984168;28;20085;-89
2021/12/20 12:00:33;;;;;;;20.98;6.75;;;;;;;;;;4976406;28;20050;-90
2021/12/20 12:03:03;;;;;;;19.30;6.30;;;;;;;;;;4964784;28;20051;-89
2021/12/20 12:05:34;;;;;;;17.05;7.18;;;;;;;;;;4975315;28;20047;-90
2021/12/20 12:08:23;;;;;;;16.73;5.78;;;;;;;;;;4975262;28;20059;-89
2021/12/20 12:10:54;;;;;;;16.00;6.50;;;;;;;;;;4993889;28;20417;-90
2021/12/20 12:13:26;;;;;;;17.23;6.43;;;;;;;;;;4994149;28;20346;-89
2021/12/20 12:16:00;;;;;;;14.45;6.00;;;;;;;;;;4985152;28;20556;-89
2021/12/20 12:18:49;;;;;;;12.55;5.97;;;;;;;;;;4996395;28;20050;-88
2021/12/20 12:21:43;;;;;;;11.55;5.30;;;;;;;;;;4977764;28;20109;-89
2021/12/20 12:24:41;;;;;;;16.00;5.55;;;;;;;;;;4977973;28;20129;-89
2021/12/20 12:27:21;;;;;;;14.73;5.70;;;;;;;;;;4993947;28;20054;-89
2021/12/20 12:30:28;;;;;;;14.93;5.50;;;;;;;;;;5003462;28;20062;-90
2021/12/20 12:33:16;;;;;;;14.77;5.55;;;;;;;;;;4952359;28;20132;-90
2021/12/20 12:35:47;;;;;;;12.55;5.22;;;;;;;;;;4992911;28;20401;-90
2021/12/20 12:38:17;;;;;;;16.65;6.22;;;;;;;;;;4992673;28;20050;-89
2021/12/20 12:40:49;;;;;;;13.18;5.00;;;;;;;;;;4993419;28;20052;-89
2021/12/20 12:43:48;;;;;;;15.48;5.88;;;;;;;;;;4992317;28;20145;-89
2021/12/20 12:46:40;;;;;;;12.73;4.68;;;;;;;;;;4992453;28;20125;-90
2021/12/20 12:49:26;;;;;;;12.63;4.28;;;;;;;;;;4993063;28;20080;-89
2021/12/20 12:51:55;;;;;;;12.38;4.13;;;;;;;;;;4985402;28;20117;-89
2021/12/20 12:54:40;;;;;;;12.77;4.45;;;;;;;;;;4994183;28;20560;-89
2021/12/20 12:57:28;;;;;;;10.02;3.83;;;;;;;;;;4992360;28;20055;-90
2021/12/20 13:00:05;;;;;;;9.15;4.60;;;;;;;;;;4995983;28;20050;-89
2021/12/20 13:02:35;;;;;;;14.48;4.45;;;;;;;;;;4988876;28;20062;-89
2021/12/20 13:05:07;;;;;;;14.52;4.45;;;;;;;;;;4997108;28;20498;-88
2021/12/20 13:07:39;;;;;;;10.65;3.45;;;;;;;;;;4993869;28;20050;-89
2021/12/20 13:10:12;;;;;;;9.98;3.92;;;;;;;;;;4984282;28;20117;-89
2021/12/20 13:12:45;;;;;;;11.93;3.83;;;;;;;;;;4991631;28;20823;-88
2021/12/20 13:15:22;;;;;;;6.33;3.67;;;;;;;;;;4993516;28;20054;-88
2021/12/20 13:17:54;;;;;;;10.25;3.47;;;;;;;;;;4993359;28;20128;-89
2021/12/20 13:20:28;;;;;;;9.82;2.92;;;;;;;;;;5012550;28;20057;-89
2021/12/20 13:22:58;;;;;;;10.02;3.47;;;;;;;;;;4993689;28;20559;-88
2021/12/20 13:25:38;;;;;;;9.60;3.03;;;;;;;;;;4987956;28;20054;-89
2021/12/20 13:28:09;;;;;;;10.00;3.83;;;;;;;;;;4990630;28;20058;-89
2021/12/20 13:30:42;;;;;;;8.70;3.47;;;;;;;;;;4991238;28;20060;-88
2021/12/20 13:33:11;;;;;;;12.77;3.20;;;;;;;;;;4992287;28;20061;-89
2021/12/20 13:35:41;;;;;;;7.05;3.15;;;;;;;;;;4992344;28;20073;-89
2021/12/20 13:38:17;;;;;;;6.93;2.90;;;;;;;;;;4989003;28;20160;-90
2021/12/20 13:40:50;;;;;;;9.27;3.38;;;;;;;;;;4974805;28;20050;-89
2021/12/20 13:43:24;;;;;;;10.48;3.83;;;;;;;;;;4973834;28;20113;-89
2021/12/20 13:46:23;;;;;;;7.00;3.30;;;;;;;;;;4973820;28;20057;-89
2021/12/20 13:49:06;;;;;;;6.97;2.95;;;;;;;;;;4969194;28;20046;-89
2021/12/20 13:51:42;;;;;;;7.00;2.97;;;;;;;;;;4988549;28;20425;-89
2021/12/20 13:54:32;;;;;;;5.13;2.88;;;;;;;;;;4990484;28;20050;-89
2021/12/20 13:57:02;;;;;;;5.47;3.15;;;;;;;;;;4989922;28;20486;-89
2021/12/20 13:59:33;;;;;;;12.00;3.53;;;;;;;;;;4967451;28;20123;-89
2021/12/20 14:02:02;;;;;;;9.57;3.65;;;;;;;;;;4988595;28;20069;-89
2021/12/20 14:04:49;;;;;;;6.57;2.90;;;;;;;;;;4987084;28;20058;-90
2021/12/20 14:07:27;;;;;;;9.07;3.00;;;;;;;;;;4987294;28;20061;-89
2021/12/20 14:10:03;;;;;;;8.82;3.50;;;;;;;;;;4987168;28;20049;-89
2021/12/20 14:12:34;;;;;;;8.88;2.80;;;;;;;;;;4975827;28;20379;-89
2021/12/20 14:15:06;;;;;;;11.65;3.28;;;;;;;;;;4987596;28;20054;-90
2021/12/20 14:18:08;;;;;;;8.75;2.92;;;;;;;;;;4987162;28;20053;-89
2021/12/20 14:20:46;;;;;;;7.53;3.00;;;;;;;;;;4989019;28;20057;-89
2021/12/20 14:23:28;;;;;;;7.55;3.35;;;;;;;;;;4986307;28;20054;-89
2021/12/20 14:26:12;;;;;;;7.47;3.83;;;;;;;;;;4983712;28;20113;-88
2021/12/20 14:28:42;;;;;;;6.35;2.90;;;;;;;;;;4988591;28;20089;-89
2021/12/20 14:31:12;;;;;;;10.00;3.47;;;;;;;;;;4985208;28;20081;-89
2021/12/20 14:33:42;;;;;;;9.18;3.13;;;;;;;;;;4985873;28;20050;-89
2021/12/20 14:36:13;;;;;;;6.30;3.17;;;;;;;;;;4986584;28;20352;-89
2021/12/20 14:38:43;;;;;;;10.45;3.25;;;;;;;;;;4985075;28;20410;-89
2021/12/20 14:41:28;;;;;;;9.45;3.20;;;;;;;;;;4987096;28;20050;-89
2021/12/20 14:43:59;;;;;;;8.60;3.58;;;;;;;;;;4986936;28;20129;-89
2021/12/20 14:46:33;;;;;;;11.52;3.03;;;;;;;;;;4987523;28;20133;-89
2021/12/20 14:49:14;;;;;;;5.63;2.78;;;;;;;;;;4985161;28;20058;-89
2021/12/20 14:51:45;;;;;;;9.82;3.63;;;;;;;;;;4988322;28;20132;-89
2021/12/20 14:54:15;;;;;;;9.43;3.72;;;;;;;;;;4989096;28;20048;-89
2021/12/20 14:56:57;;;;;;;7.68;3.45;;;;;;;;;;4990057;28;20105;-89
2021/12/20 14:59:32;;;;;;;12.10;3.70;;;;;;;;;;4990921;28;20050;-90
2021/12/20 15:02:02;;;;;;;12.23;3.95;;;;;;;;;;4990270;28;20513;-90
2021/12/20 15:04:31;;;;;;;13.27;3.67;;;;;;;;;;4991496;28;20046;-89
2021/12/20 15:07:02;;;;;;;14.05;3.90;;;;;;;;;;4991933;28;20101;-89
2021/12/20 15:09:31;;;;;;;10.38;3.97;;;;;;;;;;4994350;28;20083;-89
2021/12/20 15:12:00;;;;;;;12.02;3.60;;;;;;;;;;4987552;28;20050;-89
2021/12/20 15:14:29;;;;;;;17.08;4.18;;;;;;;;;;4980744;28;20058;-89
2021/12/20 15:16:58;;;;;;;12.68;3.45;;;;;;;;;;4991182;28;20467;-89
2021/12/20 15:19:26;;;;;;;12.80;3.63;;;;;;;;;;4974027;28;20155;-89
2021/12/20 15:21:58;;;;;;;11.65;4.10;;;;;;;;;;4990366;28;20565;-89
2021/12/20 15:24:29;;;;;;;8.93;3.20;;;;;;;;;;4999127;28;20073;-89